Flight Track Log - Related Links

Times and Time Zones

All times are in EDT time to prevent confusion due to time zone crossing. See the SWA3206 flight status page for this flight to view local times or setup timezone preferences in your user account.

Time Position Orientation Groundspeed Altitude Reporting Facility
EDT Latitude Longitude Course Direction KTS MPH feet Rate Location/Type
Mon 02:08:43 PM 41.7833 -87.8000 258° West 185 213 2,600  Level Chicago TRACON
Mon 02:09:43 PM 41.7667 -87.8833 255° West 211 243 3,700 757 Climbing Chicago TRACON
Mon 02:10:34 PM 41.7492 -87.9347 245° Southwest 216 249 4,000 789 Climbing Chicago Center
Mon 02:11:37 PM 41.7522 -88.0403 272° West 235 270 5,200 960 Climbing Chicago Center
Mon 02:12:39 PM 41.7731 -88.1297 287° West 246 283 6,000 387 Climbing Chicago Center
Mon 02:13:41 PM 41.7931 -88.2169 287° West 249 287 6,000 629 Level Chicago Center
Mon 02:14:00 PM 41.6332 -88.7207 258° West  Level Estimated
Mon 02:14:43 PM 41.8125 -88.3033 287° West 247 284 7,300  Level Chicago Center
Mon 02:15:45 PM 41.8186 -88.3958 275° West 250 288 11,000 3,581 Climbing Chicago Center
Mon 02:16:47 PM 41.7983 -88.5189 258° West 287 330 14,700 3,000 Climbing Chicago Center
Mon 02:17:49 PM 41.7756 -88.6250 254° West 298 343 17,200 1,887 Climbing Chicago Center
Mon 02:18:51 PM 41.7478 -88.7500 253° West 351 404 18,600 871 Climbing Chicago Center
Mon 02:19:53 PM 41.7186 -88.8856 254° West 379 436 19,000 1,258 Climbing Chicago Center
Mon 02:20:55 PM 41.6889 -89.0203 254° West 380 437 21,200 2,129 Climbing Chicago Center
Mon 02:22:00 PM 41.6378 -89.1862 253° West  Level FlightAware Approximate
Mon 02:22:59 PM 41.6208 -89.3331 253° West 407 468 25,600  Level Chicago Center
Mon 02:24:01 PM 41.5867 -89.4831 253° West 420 483 27,300 1,645 Climbing Chicago Center
Mon 02:25:03 PM 41.5528 -89.6336 253° West 432 497 29,000 1,548 Climbing Chicago Center
Mon 02:26:05 PM 41.5053 -89.7883 248° West 453 521 30,500 1,645 Climbing Chicago Center
Mon 02:27:07 PM 41.4394 -89.9739 245° Southwest 463 533 32,400 1,403 Climbing Chicago Center
Mon 02:28:09 PM 41.4103 -90.1358 257° West 463 533 33,400 1,065 Climbing Chicago Center
Mon 02:29:11 PM 41.3817 -90.3014 257° West 462 532 34,600 1,306 Climbing Chicago Center
Mon 02:30:13 PM 41.3533 -90.4683 257° West 460 529 36,100 1,355 Climbing Chicago Center
Mon 02:31:15 PM 41.3233 -90.6319 256° West 462 532 37,400 919 Climbing Chicago Center
Mon 02:32:17 PM 41.2675 -90.8214 249° West 459 528 38,000 290 Climbing Chicago Center
Mon 02:33:19 PM 41.2217 -90.9797 249° West 460 529 38,000  Level Chicago Center
Mon 02:34:22 PM 41.1744 -91.1369 248° West 460 529 38,000  Level Chicago Center
Mon 02:35:24 PM 41.1267 -91.2939 248° West 460 529 38,000  Level Chicago Center
Mon 02:36:26 PM 41.0800 -91.4511 249° West 460 529 38,000  Level Chicago Center
Mon 02:37:28 PM 41.0242 -91.6408 249° West 459 528 38,000  Level Chicago Center
Mon 02:38:30 PM 41.0014 -91.7792 258° West 449 517 38,000  Level Chicago Center
Mon 02:39:32 PM 40.9664 -91.9708 256° West 451 519 38,000  Level Chicago Center
Mon 02:40:34 PM 40.9378 -92.1308 257° West 451 519 38,000  Level Chicago Center
Mon 02:41:36 PM 40.9083 -92.2894 256° West 450 518 38,000  Level Chicago Center
Mon 02:42:38 PM 40.8781 -92.4500 256° West 455 524 38,000  Level Chicago Center
Mon 02:43:40 PM 40.8422 -92.6406 256° West 453 521 38,000  Level Chicago Center
Mon 02:44:42 PM 40.8111 -92.8006 256° West 455 524 38,000  Level Chicago Center
Mon 02:45:44 PM 40.7811 -92.9614 256° West 456 525 38,000  Level Chicago Center
Mon 02:46:46 PM 40.7497 -93.1217 256° West 458 527 38,000  Level Chicago Center
Mon 02:47:48 PM 40.7192 -93.2817 256° West 456 525 38,000  Level Chicago Center
Mon 02:48:51 PM 40.6811 -93.4733 255° West 454 522 38,000  Level Chicago Center
Mon 02:49:53 PM 40.6481 -93.6339 255° West 457 526 38,000  Level Chicago Center
Mon 02:50:55 PM 40.6164 -93.7922 255° West 454 522 38,000  Level Chicago Center
Mon 02:51:57 PM 40.5856 -93.9514 256° West 454 522 38,000  Level Chicago Center
Mon 02:53:07 PM 40.5439 -94.1436 254° West 456 525 38,000  Level Minneapolis Center
Mon 02:54:09 PM 40.5131 -94.3039 256° West 456 525 38,000  Level Minneapolis Center
Mon 02:55:12 PM 40.4711 -94.4942 254° West 455 524 38,000  Level Minneapolis Center
Mon 02:56:13 PM 40.4378 -94.6592 255° West 456 525 38,000  Level Minneapolis Center
Mon 02:57:15 PM 40.4033 -94.8186 254° West 454 522 38,000  Level Minneapolis Center
Mon 02:58:17 PM 40.3703 -94.9764 255° West 451 519 38,000  Level Minneapolis Center
Mon 02:59:19 PM 40.3372 -95.1342 255° West 449 517 38,000  Level Minneapolis Center
Mon 03:00:21 PM 40.3044 -95.2925 255° West 449 517 38,000  Level Minneapolis Center
Mon 03:01:23 PM 40.2700 -95.4514 254° West 451 519 38,000  Level Minneapolis Center
Mon 03:02:25 PM 40.2286 -95.6425 254° West 453 521 38,000  Level Minneapolis Center
Mon 03:03:27 PM 40.1939 -95.8008 254° West 453 521 38,000  Level Minneapolis Center
Mon 03:04:28 PM 40.1589 -95.9583 254° West 451 519 38,000  Level Minneapolis Center
Mon 03:05:30 PM 40.1233 -96.1167 254° West 452 520 38,000  Level Minneapolis Center
Mon 03:06:32 PM 40.0875 -96.2781 254° West 458 527 38,000  Level Minneapolis Center
Mon 03:07:34 PM 40.0517 -96.4378 254° West 459 528 38,000  Level Minneapolis Center
Mon 03:08:36 PM 40.0150 -96.5983 253° West 460 529 38,000  Level Minneapolis Center
Mon 03:09:37 PM 39.9786 -96.7569 253° West 457 526 38,000  Level Minneapolis Center
Mon 03:10:39 PM 39.9342 -96.9472 253° West 457 526 38,000  Level Minneapolis Center
Mon 03:11:41 PM 39.8981 -97.1072 254° West 460 529 38,000  Level Minneapolis Center
Mon 03:12:43 PM 39.8606 -97.2639 253° West 455 524 38,000  Level Minneapolis Center
Mon 03:13:44 PM 39.8242 -97.4186 253° West 457 526 38,000  Level Minneapolis Center
Mon 03:14:46 PM 39.7869 -97.5767 253° West 457 526 38,000  Level Minneapolis Center
Mon 03:15:48 PM 39.7478 -97.7364 252° West 460 529 38,000  Level Minneapolis Center
Mon 03:16:49 PM 39.7103 -97.8947 253° West 459 528 38,000  Level Minneapolis Center
Mon 03:17:51 PM 39.6644 -98.0831 253° West 456 525 38,000  Level Minneapolis Center
Mon 03:18:53 PM 39.6253 -98.2431 252° West 460 529 38,000  Level Minneapolis Center
Mon 03:19:55 PM 39.5869 -98.3994 252° West 458 527 38,000  Level Minneapolis Center
Mon 03:20:56 PM 39.5478 -98.5572 252° West 458 527 38,000  Level Minneapolis Center
Mon 03:21:58 PM 39.5078 -98.7139 252° West 458 527 38,000  Level Minneapolis Center
Mon 03:23:00 PM 39.4675 -98.8733 252° West 460 529 38,000  Level Minneapolis Center
Mon 03:24:01 PM 39.4281 -99.0328 252° West 462 532 38,000  Level Minneapolis Center
Mon 03:25:03 PM 39.3878 -99.1906 252° West 462 532 38,000  Level Minneapolis Center
Mon 03:26:04 PM 39.3400 -99.3806 252° West 463 533 38,000  Level Minneapolis Center
Mon 03:27:06 PM 39.2994 -99.5356 251° West 461 531 38,000  Level Minneapolis Center
Mon 03:28:08 PM 39.2586 -99.6917 251° West 459 528 38,000  Level Minneapolis Center
Mon 03:29:09 PM 39.2178 -99.8481 251° West 459 528 38,000  Level Minneapolis Center
Mon 03:30:25 PM 39.1694 -100.0342 252° West 460 529 38,000  Level Denver Center
Mon 03:31:27 PM 39.1228 -100.2081 251° West 460 529 38,000  Level Denver Center
Mon 03:32:29 PM 39.0831 -100.3594 251° West 465 535 38,000  Level Denver Center
Mon 03:33:31 PM 39.0358 -100.5350 251° West 464 534 38,000  Level Denver Center
Mon 03:34:33 PM 38.9967 -100.6758 250° West 461 531 38,000  Level Denver Center
Mon 03:35:35 PM 38.9500 -100.8525 251° West 467 537 38,000  Level Denver Center
Mon 03:36:36 PM 38.9083 -101.0019 250° West 465 535 38,000  Level Denver Center
Mon 03:37:38 PM 38.8600 -101.1767 250° West 467 537 38,000  Level Denver Center
Mon 03:38:40 PM 38.8189 -101.3278 251° West 469 540 38,000  Level Denver Center
Mon 03:39:42 PM 38.7706 -101.5017 250° West 467 537 38,000  Level Denver Center
Mon 03:40:44 PM 38.7286 -101.6486 250° West 464 534 38,000  Level Denver Center
Mon 03:41:46 PM 38.6808 -101.8211 251° West 463 533 38,000  Level Denver Center
Mon 03:42:47 PM 38.6383 -101.9681 250° West 462 532 38,000  Level Denver Center
Mon 03:43:49 PM 38.5897 -102.1406 250° West 463 533 38,000  Level Denver Center
Mon 03:44:51 PM 38.5461 -102.2908 250° West 469 540 38,000  Level Denver Center
Mon 03:45:53 PM 38.5031 -102.4386 250° West 468 539 38,000  Level Denver Center
Mon 03:46:55 PM 38.4519 -102.6117 249° West 469 540 38,000  Level Denver Center
Mon 03:47:56 PM 38.4094 -102.7594 250° West 467 537 38,000  Level Denver Center
Mon 03:48:58 PM 38.3592 -102.9322 250° West 467 537 38,000  Level Denver Center
Mon 03:50:00 PM 38.3147 -103.0792 249° West 465 535 38,000  Level Denver Center
Mon 03:51:02 PM 38.2633 -103.2553 250° West 465 535 38,000  Level Denver Center
Mon 03:52:03 PM 38.2261 -103.3764 249° West 464 534 38,000  Level Denver Center
Mon 03:53:05 PM 38.1742 -103.5500 249° West 470 541 38,000  Level Denver Center
Mon 03:54:07 PM 38.1217 -103.7211 249° West 469 540 38,000  Level Denver Center
Mon 03:55:09 PM 38.0778 -103.8675 249° West 467 537 38,000  Level Denver Center
Mon 03:56:10 PM 38.0342 -104.0136 249° West 465 535 38,000  Level Denver Center
Mon 03:57:13 PM 37.9811 -104.1839 248° West 468 539 38,000  Level Denver Center
Mon 03:58:26 PM 37.9283 -104.3556 249° West 470 541 38,000  Level Denver Center
Mon 03:59:28 PM 37.8669 -104.5522 248° West 473 544 38,000  Level Denver Center
Mon 04:00:30 PM 37.8208 -104.7008 249° West 474 545 38,000  Level Denver Center
Mon 04:01:32 PM 37.7653 -104.8733 248° West 477 549 38,000  Level Denver Center
Mon 04:02:34 PM 37.7183 -105.0200 248° West 472 543 38,000  Level Denver Center
Mon 04:03:36 PM 37.6717 -105.1675 248° West 474 545 38,000  Level Denver Center
Mon 04:04:37 PM 37.6161 -105.3381 248° West 473 544 38,000  Level Denver Center
Mon 04:05:39 PM 37.5686 -105.4864 248° West 476 548 38,000  Level Denver Center
Mon 04:06:41 PM 37.5144 -105.6542 248° West 472 543 38,000  Level Denver Center
Mon 04:07:43 PM 37.4669 -105.8011 248° West 474 545 38,000  Level Denver Center
Mon 04:08:45 PM 37.4100 -105.9697 247° West 469 540 38,000  Level Denver Center
Mon 04:09:47 PM 37.3619 -106.1156 248° West 471 542 38,000  Level Denver Center
Mon 04:10:49 PM 37.3058 -106.2842 247° West 470 541 38,000  Level Denver Center
Mon 04:11:50 PM 37.2586 -106.4297 248° West 470 541 38,000  Level Denver Center
Mon 04:12:52 PM 37.2028 -106.5972 247° West 467 537 38,000  Level Denver Center
Mon 04:13:54 PM 37.1542 -106.7408 247° West 467 537 38,000  Level Denver Center
Mon 04:14:56 PM 37.0981 -106.9092 247° West 469 540 38,000  Level Denver Center
Mon 04:15:58 PM 37.0481 -107.0528 246° West 470 541 38,000  Level Denver Center
Mon 04:17:00 PM 36.9994 -107.1967 247° West 470 541 38,000  Level Denver Center
Mon 04:18:02 PM 36.9408 -107.3631 246° West 469 540 38,000  Level Denver Center
Mon 04:19:04 PM 36.8933 -107.5069 248° West 468 539 38,000  Level Denver Center
Mon 04:20:05 PM 36.8350 -107.6731 246° West 468 539 38,000  Level Denver Center
Mon 04:21:07 PM 36.7847 -107.8147 246° West 466 536 38,000  Level Denver Center
Mon 04:22:09 PM 36.7275 -107.9806 247° West 467 537 38,000  Level Denver Center
Mon 04:23:11 PM 36.6781 -108.1222 247° West 465 535 38,000  Level Denver Center
Mon 04:24:13 PM 36.6194 -108.2856 246° West 464 534 38,000  Level Denver Center
Mon 04:25:15 PM 36.5686 -108.4283 246° West 470 541 38,000  Level Denver Center
Mon 04:26:17 PM 36.5097 -108.5931 246° West 469 540 38,000  Level Denver Center
Mon 04:27:19 PM 36.4589 -108.7339 246° West 469 540 38,000  Level Denver Center
Mon 04:28:20 PM 36.4008 -108.8986 246° West 470 541 38,000  Level Denver Center
Mon 04:29:22 PM 36.3500 -109.0378 246° West 468 539 38,000  Level Denver Center
Mon 04:30:24 PM 36.2897 -109.2006 245° Southwest 469 540 38,000  Level Denver Center
Mon 04:31:26 PM 36.2389 -109.3403 246° West 469 540 38,000  Level Denver Center
Mon 04:32:28 PM 36.1781 -109.5042 245° Southwest 470 541 38,000  Level Denver Center
Mon 04:33:30 PM 36.1264 -109.6447 246° West 471 542 38,000  Level Denver Center
Mon 04:34:32 PM 36.0642 -109.8086 245° Southwest 471 542 38,000  Level Denver Center
Mon 04:35:34 PM 36.0122 -109.9472 245° Southwest 467 537 38,000  Level Denver Center
Mon 04:36:36 PM 35.9606 -110.0886 246° West 471 542 38,000  Level Denver Center
Mon 04:37:37 PM 35.9047 -110.2353 245° Southwest 470 541 38,000  Level Denver Center
Mon 04:38:39 PM 35.8497 -110.3817 245° Southwest 471 542 38,000  Level Denver Center
Mon 04:39:41 PM 35.7825 -110.5572 245° Southwest 472 543 38,000  Level Denver Center
Mon 04:40:43 PM 35.7267 -110.7033 245° Southwest 473 544 38,000  Level Denver Center
Mon 04:41:55 PM 35.6536 -110.8786 243° Southwest 474 545 38,000  Level Albuquerque Center
Mon 04:42:57 PM 35.6017 -111.0183 245° Southwest 470 541 38,000  Level Albuquerque Center
Mon 04:43:59 PM 35.5369 -111.1789 244° Southwest 470 541 38,000  Level Albuquerque Center
Mon 04:45:01 PM 35.4833 -111.3192 245° Southwest 472 543 38,000  Level Albuquerque Center
Mon 04:46:02 PM 35.4247 -111.4750 245° Southwest 477 549 38,000  Level Albuquerque Center
Mon 04:47:04 PM 35.3678 -111.6206 244° Southwest 476 548 38,000  Level Albuquerque Center
Mon 04:48:06 PM 35.3119 -111.7647 245° Southwest 472 543 38,000  Level Albuquerque Center
Mon 04:49:08 PM 35.2536 -111.9075 243° Southwest 471 542 38,000  Level Albuquerque Center
Mon 04:50:10 PM 35.1964 -112.0503 244° Southwest 470 541 38,000  Level Albuquerque Center
Mon 04:51:12 PM 35.1272 -112.2228 244° Southwest 471 542 38,000  Level Albuquerque Center
Mon 04:52:13 PM 35.0706 -112.3656 244° Southwest 469 540 38,000  Level Albuquerque Center
Mon 04:53:15 PM 35.0122 -112.5081 243° Southwest 468 539 38,000  Level Albuquerque Center
Mon 04:54:17 PM 34.9544 -112.6522 244° Southwest 471 542 38,000  Level Albuquerque Center
Mon 04:55:19 PM 34.8956 -112.7953 243° Southwest 471 542 38,000  Level Albuquerque Center
Mon 04:56:21 PM 34.8369 -112.9383 244° Southwest 471 542 38,000  Level Albuquerque Center
Mon 04:57:22 PM 34.7778 -113.0817 243° Southwest 473 544 38,000  Level Albuquerque Center
Mon 04:58:24 PM 34.7197 -113.2239 244° Southwest 472 543 38,000  Level Albuquerque Center
Mon 04:59:26 PM 34.6481 -113.3933 243° Southwest 471 542 38,000 -339 Level Albuquerque Center
Mon 05:00:28 PM 34.5903 -113.5331 243° Southwest 467 537 37,300 -1,210 Descending Albuquerque Center
Mon 05:01:30 PM 34.5344 -113.6653 243° Southwest 470 541 35,500 -1,597 Descending Albuquerque Center
Mon 05:02:32 PM 34.4628 -113.8350 243° Southwest 471 542 34,000 -732 Descending Albuquerque Center
Mon 05:03:33 PM 34.4028 -113.9783 243° Southwest 475 547 34,000 -98 Level Albuquerque Center
Mon 05:04:35 PM 34.3433 -114.1200 243° Southwest 472 543 33,800 -581 Descending Albuquerque Center
Mon 05:05:37 PM 34.2814 -114.2631 242° Southwest 476 548 32,800 -968 Descending Albuquerque Center
Mon 05:06:39 PM 34.2211 -114.4044 243° Southwest 474 545 31,800 -968 Descending Albuquerque Center
Mon 05:07:41 PM 34.1617 -114.5431 243° Southwest 470 541 30,800 -977 Descending Albuquerque Center
Mon 05:08:48 PM 34.0967 -114.6961 243° Southwest 459 528 29,700 -1,023 Descending Los Angeles Center
Mon 05:09:50 PM 34.0372 -114.8300 242° Southwest 454 522 28,600 -823 Descending Los Angeles Center
Mon 05:10:52 PM 33.9672 -114.9856 242° Southwest 442 509 28,000 -290 Descending Los Angeles Center
Mon 05:11:54 PM 33.9103 -115.1158 242° Southwest 440 506 28,000  Level Los Angeles Center
Mon 05:12:56 PM 33.8528 -115.2467 242° Southwest 443 510 28,000  Level Los Angeles Center
Mon 05:13:58 PM 33.7944 -115.3756 241° Southwest 441 507 28,000  Level Los Angeles Center
Mon 05:15:00 PM 33.7361 -115.5064 242° Southwest 444 511 28,000  Level Los Angeles Center
Mon 05:16:02 PM 33.6781 -115.6361 242° Southwest 443 510 28,000 -677 Level Los Angeles Center
Mon 05:17:04 PM 33.6061 -115.7894 241° Southwest 440 506 26,600 -1,584 Descending Los Angeles Center
Mon 05:18:07 PM 33.5403 -115.9050 236° Southwest 425 489 24,700 -1,296 Descending Los Angeles Center
Mon 05:19:09 PM 33.4767 -116.0111 234° Southwest 400 460 23,900 -1,306 Descending Los Angeles Center
Mon 05:20:11 PM 33.4164 -116.1153 235° Southwest 385 443 22,000 -2,081 Descending Los Angeles Center
Mon 05:21:13 PM 33.3592 -116.2142 235° Southwest 367 422 19,600 -2,274 Descending Los Angeles Center
Mon 05:22:15 PM 33.2636 -116.2922 214° Southwest 360 414 17,300 -2,032 Descending Los Angeles Center
Mon 05:23:17 PM 33.1725 -116.3456 206° Southwest 362 417 15,400 -1,839 Descending Los Angeles Center
Mon 05:24:19 PM 33.0847 -116.3981 207° Southwest 359 413 13,500 -1,645 Descending Los Angeles Center
Mon 05:25:21 PM 32.9956 -116.4497 206° Southwest 346 398 12,000 -726 Descending Los Angeles Center
Mon 05:26:23 PM 32.9139 -116.4967 206° Southwest 331 381 12,000 -242 Level Los Angeles Center
Mon 05:27:25 PM 32.8294 -116.5622 213° Southwest 340 391 11,500 -919 Descending Los Angeles Center
Mon 05:28:27 PM 32.7853 -116.6533 240° Southwest 324 373 10,100 -1,645 Descending Los Angeles Center
Mon 05:29:29 PM 32.7442 -116.7403 241° Southwest 310 357 8,100 -1,935 Descending Los Angeles Center
Mon 05:30:31 PM 32.7056 -116.8222 241° Southwest 291 335 6,100 -1,694 Descending Los Angeles Center
Mon 05:31:33 PM 32.6789 -116.9061 249° West 277 319 4,600 -769 Descending Los Angeles Center
Mon 05:32:28 PM 32.6833 -116.9833 274° West 180 207 4,600 -626 Level Southern California TRACON
Mon 05:33:28 PM 32.7000 -117.0167 301° West 140 161 3,400 -1,150 Descending Southern California TRACON
Mon 05:34:28 PM 32.7000 -117.0667 270° West 139 160 2,300 -1,050 Descending Southern California TRACON
Mon 05:35:28 PM 32.7167 -117.1167 292° West 138 159 1,300 -850 Descending Southern California TRACON
Mon 05:36:28 PM 32.7333 -117.1500 301° West 132 152 600 -720 Descending Southern California TRACON
Mon 05:36:43 PM 32.7256 -117.1569 217° Southwest 131 151 400 -390 Descending Los Angeles Center
Mon 05:37:45 PM 32.7375 -117.1997 288° West 131 151 100 -290 Descending Los Angeles Center
Mon 05:39:00 PM 32.7333 -117.1833 North  Level FlightAware Approximate

Login

Don't have an account? Register now (free) for customized features, flight alerts, and more!